Latest Weather Observations for Grafton Airport

IDN60801

Issued at 6:35 am EDT Tuesday 25 November 2014 (issued every 30 minutes, with the page automatically refreshed every 10 minutes)

About weather observations | Map of weather stations | Latest weather observations for NSW | Other Formats
Station Details ID: 058161 Name: GRAFTON AIRPORT AWS Lat: -29.76 Lon: 153.03 Height: 25.09 m
Data from the previous 72 hours. | See also: Recent months for locations in New South Wales
Date/Time
EDT
Temp
°C
App
Temp
°C
Dew
Point
Rel
Hum
%
Delta-T
°C
Wind Press
QNH
hPa
Press
MSL
hPa
Rain
since 9 am
mm
Dir
 
Spd
km/h
Gust
km/h
Spd
kts
Gust
kts
25/06:30am 20.5 23.8 19.0 91 0.9 WSW 0 0 0 0 1012.6 1012.5 0.0
25/06:00am 19.4 21.1 18.1 92 0.8 WSW 6 7 3 4 1012.3 1012.2 0.0
25/05:30am 20.0 22.9 18.3 90 1.1 CALM 0 6 0 3 1011.9 1011.8 0.0
25/05:00am 20.2 23.1 18.1 88 1.3 CALM 0 0 0 0 1011.8 1011.7 0.0
25/04:30am 20.5 22.4 18.6 89 1.2 SSW 6 9 3 5 1011.7 1011.6 0.0
25/04:00am 20.7 23.2 18.1 85 1.6 N 2 7 1 4 1011.3 1011.2 0.0
25/03:30am 21.4 23.2 18.4 83 1.9 ENE 6 9 3 5 1011.4 1011.3 0.0
25/03:00am 21.8 23.2 18.6 82 2.0 E 9 13 5 7 1011.2 1011.1 0.0
25/02:30am 22.1 23.5 18.7 81 2.1 E 9 11 5 6 1011.3 1011.2 0.0
25/02:00am 22.3 24.2 18.9 81 2.2 SE 7 11 4 6 1011.6 1011.5 0.0
25/01:30am 22.4 23.6 19.0 81 2.2 S 11 13 6 7 1011.8 1011.7 0.0
25/01:00am 22.1 24.2 18.9 82 2.0 SE 6 17 3 9 1012.2 1012.1 0.0
25/12:30am 22.3 23.5 19.1 82 2.0 NNE 11 15 6 8 1011.3 1011.2 0.0
25/12:00am 22.3 24.2 18.9 81 2.2 NNE 7 11 4 6 1011.3 1011.2 0.0
 
Date/Time
EDT
Temp
°C
App
Temp
°C
Dew
Point
Rel
Hum
%
Delta-T
°C
Wind Press
QNH
hPa
Press
MSL
hPa
Rain
since 9 am
mm
Dir
 
Spd
km/h
Gust
km/h
Spd
kts
Gust
kts
24/11:30pm 22.4 24.3 19.0 81 2.2 NE 7 9 4 5 1011.4 1011.3 0.0
24/11:00pm 22.5 24.1 19.1 81 2.2 NE 9 11 5 6 1011.4 1011.3 0.0
24/10:30pm 22.7 24.7 19.1 80 2.3 ENE 7 11 4 6 1011.5 1011.4 0.0
24/10:00pm 22.8 24.4 19.2 80 2.3 NE 9 13 5 7 1011.3 1011.2 0.0
24/09:30pm 23.1 24.4 19.3 79 2.4 ENE 11 15 6 8 1010.9 1010.8 0.0
24/09:00pm 23.4 24.7 19.3 78 2.6 ENE 11 15 6 8 1010.5 1010.4 0.0
24/08:30pm 24.0 24.9 19.3 75 3.0 ENE 13 20 7 11 1010.2 1010.1 0.0
24/08:00pm 24.9 25.7 19.0 69 3.8 ENE 13 20 7 11 1009.7 1009.6 0.0
24/07:30pm 26.2 27.3 18.8 63 4.7 NE 11 15 6 8 1009.5 1009.4 0.0
24/07:00pm 27.8 27.7 18.8 58 5.8 ENE 17 22 9 12 1009.1 1009.0 0.0
24/06:30pm 29.8 29.4 18.9 52 7.1 ENE 19 26 10 14 1008.6 1008.5 0.0
24/06:00pm 30.4 30.0 18.8 50 7.5 ENE 19 28 10 15 1008.4 1008.3 0.0
24/05:30pm 31.8 31.2 18.4 45 8.7 ENE 19 30 10 16 1008.4 1008.3 0.0
24/05:00pm 32.5 30.9 18.3 43 9.2 ENE 24 30 13 16 1008.5 1008.4 0.0
24/04:30pm 34.4 31.7 17.6 37 10.8 NE 28 35 15 19 1008.8 1008.7 0.0
24/04:00pm 34.0 32.5 18.5 40 10.1 ENE 24 35 13 19 1009.1 1009.0 0.0
24/03:30pm 34.8 34.5 19.6 40 10.1 NE 20 28 11 15 1009.6 1009.5 0.0
24/03:00pm 34.8 33.6 19.2 39 10.3 NNE 24 33 13 18 1010.2 1010.1 0.0
24/02:30pm 35.2 34.9 19.1 38 10.6 NNE 19 28 10 15 1010.7 1010.6 0.0
24/02:00pm 36.0 35.9 19.9 39 10.8 NNE 20 32 11 17 1011.1 1011.0 0.0
24/01:30pm 36.3 37.2 19.3 37 11.3 NE 13 22 7 12 1011.5 1011.4 0.0
24/01:00pm 35.3 36.2 20.0 40 10.2 N 15 22 8 12 1012.1 1012.0 0.0
24/12:30pm 34.7 35.7 20.3 43 9.6 NE 15 22 8 12 1012.7 1012.6 0.0
24/12:00pm 33.4 34.2 19.8 44 9.0 NE 15 28 8 15 1013.2 1013.1 0.0
24/11:30am 33.0 33.4 19.8 45 8.7 NE 17 22 9 12 1013.8 1013.7 0.0
24/11:00am 32.2 33.8 20.8 51 7.6 N 13 22 7 12 1014.4 1014.3 0.0
24/10:30am 31.2 31.2 18.9 48 8.0 N 17 26 9 14 1014.6 1014.5 0.0
24/10:00am 30.3 31.1 19.9 53 6.8 N 15 22 8 12 1014.9 1014.8 0.0
24/09:30am 29.0 29.2 19.3 55 6.3 N 17 20 9 11 1015.0 1014.9 0.0
24/09:00am 28.0 28.3 19.5 60 5.5 NNE 17 22 9 12 1015.3 1015.2 0.0
24/08:30am 26.6 27.2 20.2 68 4.2 N 17 24 9 13 1015.5 1015.4 0.0
24/08:00am 24.9 26.0 19.7 73 3.4 NNE 13 19 7 10 1015.7 1015.6 0.0
24/07:30am 23.4 25.9 19.8 80 2.3 NNE 6 11 3 6 1015.8 1015.7 0.0
24/07:00am 21.8 24.2 19.7 88 1.3 N 6 7 3 4 1015.5 1015.4 0.0
24/06:30am 21.7 24.1 19.6 88 1.3 NW 6 7 3 4 1015.2 1015.1 0.0
24/06:00am 20.9 23.5 19.2 90 1.1 WNW 4 6 2 3 1014.8 1014.7 0.0
24/05:30am 21.5 22.9 19.6 89 1.2 NE 11 13 6 7 1014.3 1014.2 0.0
24/05:00am 21.7 23.5 19.6 88 1.3 ENE 9 15 5 8 1014.2 1014.1 0.0
24/04:30am 21.8 23.4 19.9 89 1.2 ENE 11 15 6 8 1014.0 1013.9 0.0
24/04:00am 21.4 24.8 19.3 88 1.3 CALM 0 7 0 4 1014.3 1014.2 0.0
24/03:30am 21.2 24.6 19.3 89 1.2 CALM 0 0 0 0 1014.4 1014.3 0.0
24/03:00am 21.3 24.6 19.0 87 1.5 CALM 0 0 0 0 1014.1 1014.0 0.0
24/02:30am 21.9 24.0 19.3 85 1.7 ENE 7 9 4 5 1014.0 1013.9 0.0
24/02:00am 21.9 25.4 19.5 86 1.5 CALM 0 0 0 0 1014.2 1014.1 0.0
24/01:30am 22.0 24.3 19.5 86 1.6 N 6 9 3 5 1014.2 1014.1 0.0
24/01:00am 22.3 24.8 19.8 86 1.6 N 6 6 3 3 1014.3 1014.2 0.0
24/12:30am 22.4 24.7 19.8 85 1.7 NNE 7 7 4 4 1014.3 1014.2 0.0
24/12:00am 22.7 25.2 19.9 84 1.8 NNE 6 7 3 4 1014.2 1014.1 0.0
 
Date/Time
EDT
Temp
°C
App
Temp
°C
Dew
Point
Rel
Hum
%
Delta-T
°C
Wind Press
QNH
hPa
Press
MSL
hPa
Rain
since 9 am
mm
Dir
 
Spd
km/h
Gust
km/h
Spd
kts
Gust
kts
23/11:30pm 23.1 25.7 20.1 83 1.9 NNE 6 7 3 4 1014.4 1014.3 0.0
23/11:00pm 23.2 25.2 20.0 82 2.1 N 9 11 5 6 1014.4 1014.3 0.0
23/10:30pm 24.6 27.0 20.1 76 2.9 ENE 7 11 4 6 1013.8 1013.7 0.0
23/10:00pm 24.9 27.7 20.8 78 2.7 ENE 7 9 4 5 1013.8 1013.7 0.0
23/09:30pm 24.5 26.7 20.4 78 2.7 N 9 9 5 5 1013.7 1013.6 0.0
23/09:00pm 25.2 27.5 20.7 76 2.9 N 9 13 5 7 1014.2 1014.1 0.0
23/08:30pm 26.5 29.6 21.5 74 3.3 N 7 13 4 7 1014.0 1013.9 0.0
23/08:00pm 27.5 30.7 21.3 69 4.1 SSW 6 11 3 6 1014.0 1013.9 0.0
23/07:30pm 27.6 30.7 21.4 69 4.1 E 7 11 4 6 1013.1 1013.0 0.0
23/07:00pm 28.1 32.0 21.1 65 4.7 SSW 2 7 1 4 1012.8 1012.7 0.0
23/06:30pm 28.2 32.5 21.2 65 4.7 CALM 0 0 0 0 1011.6 1011.5 0.0
23/06:00pm 28.4 30.2 21.2 65 4.8 SSW 13 17 7 9 1011.8 1011.7 0.0
23/05:30pm 27.9 30.0 21.0 66 4.6 NE 11 17 6 9 1011.0 1010.9 0.0
23/05:00pm 28.3 29.9 20.8 63 5.0 NE 13 19 7 10 1010.5 1010.4 0.0
23/04:30pm 28.8 31.2 20.8 62 5.3 NE 9 13 5 7 1011.2 1011.1 0.0
23/04:00pm 29.3 31.6 20.7 59 5.7 ENE 9 11 5 6 1011.6 1011.5 0.0
23/03:30pm 30.1 31.3 20.6 56 6.3 NE 15 22 8 12 1011.3 1011.2 0.0
23/03:00pm 31.5 32.4 20.8 53 7.2 ENE 17 24 9 13 1011.3 1011.2 0.0
23/02:30pm 34.1 34.4 20.8 45 8.9 NE 20 24 11 13 1011.4 1011.3 0.0
23/02:00pm 36.1 36.4 20.8 41 10.4 NE 20 33 11 18 1011.1 1011.0 0.0
23/01:30pm 37.1 36.3 20.0 37 11.5 NNE 24 33 13 18 1011.4 1011.3 0.0
23/01:00pm 37.0 36.7 21.1 39 10.8 NNE 24 33 13 18 1011.9 1011.8 0.0
23/12:30pm 36.4 36.2 20.6 39 10.7 N 22 33 12 18 1012.7 1012.6 0.0
23/12:00pm 35.9 36.1 21.3 42 9.9 NNE 22 32 12 17 1013.3 1013.2 0.0
23/11:30am 33.9 33.9 21.0 47 8.7 NNE 22 32 12 17 1013.8 1013.7 0.0
23/11:00am 33.3 33.9 21.1 48 8.2 NNE 19 28 10 15 1014.3 1014.2 0.0
23/10:30am 31.5 32.8 21.7 56 6.6 N 17 22 9 12 1014.8 1014.7 0.0
23/10:00am 29.7 30.9 21.4 61 5.6 N 17 26 9 14 1015.0 1014.9 0.0
23/09:30am 28.9 30.6 21.7 65 4.8 N 15 20 8 11 1015.0 1014.9 0.0
23/09:00am 28.4 30.2 21.9 68 4.4 N 15 20 8 11 1015.3 1015.2 0.0
23/08:40am 27.1 28.8 21.6 72 3.7 N 15 22 8 12 1015.3 1015.2 0.0
23/08:30am 27.2 28.2 21.7 72 3.7 N 19 24 10 13 1015.4 1015.3 0.0
23/08:27am 26.6 27.5 21.6 74 3.3 N 19 26 10 14 1015.4 1015.3 0.0
23/08:18am 26.5 27.7 21.5 74 3.3 N 17 26 9 14 1015.4 1015.3 0.0
23/08:00am 25.2 27.6 21.5 80 2.5 N 11 17 6 9 1015.4 1015.3 0.0
23/07:30am 24.3 26.2 21.4 84 1.9 N 13 15 7 8 1015.3 1015.2 0.0
23/07:00am 23.7 25.9 21.2 86 1.6 N 11 15 6 8 1015.1 1015.0 0.0
23/06:30am 23.4 25.3 21.3 88 1.4 NNE 13 17 7 9 1014.7 1014.6 0.0
23/06:00am 23.4 25.4 21.5 89 1.3 NNE 13 15 7 8 1014.6 1014.5 0.0
23/05:30am 23.2 26.0 21.5 90 1.1 N 9 11 5 6 1014.5 1014.4 0.0
23/05:00am 23.3 26.5 21.6 90 1.1 N 7 9 4 5 1014.0 1013.9 0.0
23/04:30am 23.2 26.2 21.3 89 1.2 N 7 9 4 5 1013.5 1013.4 0.0
23/04:00am 23.3 26.4 21.4 89 1.3 N 7 9 4 5 1013.5 1013.4 0.0
23/03:30am 23.3 26.0 21.4 89 1.3 N 9 11 5 6 1013.2 1013.1 0.0
23/03:00am 23.6 26.4 21.5 88 1.4 NNE 9 13 5 7 1013.2 1013.1 0.0
23/02:30am 23.6 28.0 21.3 87 1.5 CALM 0 0 0 0 1013.3 1013.2 0.0
23/02:00am 23.6 28.0 21.3 87 1.5 CALM 0 0 0 0 1013.6 1013.5 0.0
23/01:30am 23.6 27.6 21.3 87 1.5 SSW 2 7 1 4 1013.6 1013.5 0.0
23/01:00am 23.6 26.6 21.3 87 1.5 SW 7 9 4 5 1013.8 1013.7 0.0
23/12:30am 23.8 26.5 21.3 86 1.6 SSW 9 15 5 8 1014.2 1014.1 0.0
23/12:00am 23.9 25.8 21.4 86 1.6 S 13 17 7 9 1014.3 1014.2 0.0
 
Date/Time
EDT
Temp
°C
App
Temp
°C
Dew
Point
Rel
Hum
%
Delta-T
°C
Wind Press
QNH
hPa
Press
MSL
hPa
Rain
since 9 am
mm
Dir
 
Spd
km/h
Gust
km/h
Spd
kts
Gust
kts
22/11:30pm 23.9 25.8 21.4 86 1.6 S 13 17 7 9 1014.5 1014.4 0.0
22/11:00pm 23.9 25.1 21.4 86 1.6 S 17 20 9 11 1014.5 1014.4 0.0
22/10:30pm 23.9 26.1 21.2 85 1.8 S 11 19 6 10 1014.6 1014.5 0.0
22/10:00pm 23.9 25.7 21.2 85 1.8 SSE 13 22 7 12 1014.5 1014.4 0.0
22/09:30pm 24.0 25.8 21.1 84 1.9 SSE 13 20 7 11 1014.3 1014.2 0.0
22/09:00pm 24.0 25.4 21.1 84 1.9 SSE 15 22 8 12 1013.9 1013.8 0.0
22/08:30pm 24.1 25.8 21.0 83 2.0 S 13 19 7 10 1013.7 1013.6 0.0
22/08:00pm 24.1 24.7 21.0 83 2.0 SSE 19 26 10 14 1013.2 1013.1 0.0
22/07:30pm 24.3 25.2 20.8 81 2.3 SSE 17 24 9 13 1012.9 1012.8 0.0
22/07:28pm 24.4 25.3 20.9 81 2.3 SSE 17 24 9 13 1012.9 1012.8 0.0
22/07:00pm 24.9 25.7 20.6 77 2.8 SSE 17 24 9 13 1012.6 1012.5 0.0
22/06:30pm 26.0 26.3 20.8 73 3.4 SSE 20 28 11 15 1012.0 1011.9 0.0
22/06:00pm 26.6 26.9 20.4 69 4.1 ESE 19 24 10 13 1011.8 1011.7 0.0
22/05:30pm 27.1 27.8 20.4 66 4.4 ESE 17 24 9 13 1011.7 1011.6 0.0
22/05:00pm 28.3 29.9 20.8 63 5.0 ESE 13 24 7 13 1011.4 1011.3 0.0
22/04:30pm 28.7 28.8 20.4 60 5.5 SE 20 28 11 15 1011.4 1011.3 0.0
22/04:00pm 28.7 28.6 19.9 59 5.8 SE 20 32 11 17 1011.6 1011.5 0.0
22/03:30pm 29.2 29.5 20.4 59 5.8 SE 19 28 10 15 1011.6 1011.5 0.0
22/03:00pm 29.2 28.8 20.1 58 6.0 SE 22 30 12 16 1011.5 1011.4 0.0
22/02:30pm 29.9 29.6 19.6 54 6.7 E 20 30 11 16 1011.6 1011.5 0.0
22/02:00pm 30.4 29.8 19.7 52 7.0 E 22 30 12 16 1011.6 1011.5 0.0
22/01:30pm 32.0 32.3 20.3 50 7.8 SE 19 32 10 17 1011.8 1011.7 0.0
22/01:00pm 31.7 32.1 20.6 51 7.4 SE 19 28 10 15 1012.2 1012.1 0.0
22/12:30pm 31.4 31.9 20.0 50 7.5 ESE 17 24 9 13 1012.6 1012.5 0.0
22/12:00pm 31.1 32.0 20.1 52 7.3 ESE 15 22 8 12 1012.9 1012.8 0.0
22/11:30am 31.2 32.9 21.7 57 6.4 ENE 15 32 8 17 1013.1 1013.0 0.0
22/11:00am 30.2 32.3 21.0 58 6.1 E 11 20 6 11 1013.3 1013.2 0.0
22/10:30am 29.1 30.0 20.8 61 5.5 E 17 22 9 12 1013.6 1013.5 0.0
22/10:00am 28.1 29.3 20.6 63 5.0 ESE 15 20 8 11 1013.6 1013.5 0.0
22/09:30am 28.1 29.8 20.9 65 4.8 ESE 13 20 7 11 1013.5 1013.4 0.0
22/09:00am 27.1 28.0 20.9 69 4.1 SE 17 20 9 11 1013.4 1013.3 0.0
22/08:30am 27.4 29.5 21.0 68 4.2 SE 11 17 6 9 1013.2 1013.1 0.0
22/08:00am 27.0 31.1 21.5 72 3.7 S 2 6 1 3 1012.9 1012.8 0.0
22/07:30am 24.8 28.1 21.5 82 2.2 S 6 7 3 4 1012.5 1012.4 0.0
22/07:00am 23.0 25.8 20.9 88 1.4 S 7 9 4 5 1012.2 1012.1 0.0

Other Formats:

Comma delimited format used in spreadsheet applications
http://www.bom.gov.au/fwo/IDN60801/IDN60801.95570.axf

JavaScript Object Notation format (JSON) in row-major order
http://www.bom.gov.au/fwo/IDN60801/IDN60801.95570.json